sensor_id;sensor_type;location;lat;lon;timestamp;P1;durP1;ratioP1;P2;durP2;ratioP2
75441;SDS011;64019;48.312;14.226;2022-12-18T00:03:58;79.57;;;28.93;;
75441;SDS011;64019;48.312;14.226;2022-12-18T00:06:26;78.90;;;29.50;;
75441;SDS011;64019;48.312;14.226;2022-12-18T00:08:54;76.13;;;28.87;;
75441;SDS011;64019;48.312;14.226;2022-12-18T00:11:22;75.40;;;26.90;;
75441;SDS011;64019;48.312;14.226;2022-12-18T00:13:49;80.43;;;29.10;;
75441;SDS011;64019;48.312;14.226;2022-12-18T00:16:17;82.63;;;27.80;;
75441;SDS011;64019;48.312;14.226;2022-12-18T00:18:47;77.20;;;27.80;;
75441;SDS011;64019;48.312;14.226;2022-12-18T00:21:14;71.43;;;26.30;;
75441;SDS011;64019;48.312;14.226;2022-12-18T00:23:41;67.03;;;24.57;;
75441;SDS011;64019;48.312;14.226;2022-12-18T00:26:10;70.43;;;25.33;;
75441;SDS011;64019;48.312;14.226;2022-12-18T00:28:39;65.93;;;25.43;;
75441;SDS011;64019;48.312;14.226;2022-12-18T00:31:07;67.47;;;24.73;;
75441;SDS011;64019;48.312;14.226;2022-12-18T00:33:35;69.30;;;24.27;;
75441;SDS011;64019;48.312;14.226;2022-12-18T00:36:06;59.13;;;23.73;;
75441;SDS011;64019;48.312;14.226;2022-12-18T00:38:34;62.00;;;22.83;;
75441;SDS011;64019;48.312;14.226;2022-12-18T00:41:00;72.93;;;24.57;;
75441;SDS011;64019;48.312;14.226;2022-12-18T00:43:26;68.47;;;25.47;;
75441;SDS011;64019;48.312;14.226;2022-12-18T00:45:52;67.37;;;22.27;;
75441;SDS011;64019;48.312;14.226;2022-12-18T00:48:18;69.20;;;23.27;;
75441;SDS011;64019;48.312;14.226;2022-12-18T00:50:44;68.03;;;22.63;;
75441;SDS011;64019;48.312;14.226;2022-12-18T00:53:10;63.70;;;22.83;;
75441;SDS011;64019;48.312;14.226;2022-12-18T00:55:38;55.87;;;21.50;;
75441;SDS011;64019;48.312;14.226;2022-12-18T00:58:05;58.70;;;22.67;;
75441;SDS011;64019;48.312;14.226;2022-12-18T01:00:31;67.50;;;23.37;;
75441;SDS011;64019;48.312;14.226;2022-12-18T01:02:56;62.60;;;22.33;;
75441;SDS011;64019;48.312;14.226;2022-12-18T01:05:22;56.33;;;22.10;;
75441;SDS011;64019;48.312;14.226;2022-12-18T01:07:47;65.00;;;23.37;;
75441;SDS011;64019;48.312;14.226;2022-12-18T01:10:13;51.10;;;20.93;;
75441;SDS011;64019;48.312;14.226;2022-12-18T01:12:39;63.33;;;20.27;;
75441;SDS011;64019;48.312;14.226;2022-12-18T01:15:06;52.03;;;20.67;;
75441;SDS011;64019;48.312;14.226;2022-12-18T01:17:32;51.57;;;19.87;;
75441;SDS011;64019;48.312;14.226;2022-12-18T01:19:58;54.60;;;19.00;;
75441;SDS011;64019;48.312;14.226;2022-12-18T01:22:24;49.47;;;18.23;;
75441;SDS011;64019;48.312;14.226;2022-12-18T01:24:49;54.47;;;19.57;;
75441;SDS011;64019;48.312;14.226;2022-12-18T01:27:15;58.90;;;20.07;;
75441;SDS011;64019;48.312;14.226;2022-12-18T01:29:41;47.17;;;18.93;;
75441;SDS011;64019;48.312;14.226;2022-12-18T01:32:07;48.53;;;19.57;;
75441;SDS011;64019;48.312;14.226;2022-12-18T01:34:35;47.30;;;18.90;;
75441;SDS011;64019;48.312;14.226;2022-12-18T01:37:02;53.07;;;19.33;;
75441;SDS011;64019;48.312;14.226;2022-12-18T01:39:28;55.07;;;18.83;;
75441;SDS011;64019;48.312;14.226;2022-12-18T01:41:54;42.77;;;17.63;;
75441;SDS011;64019;48.312;14.226;2022-12-18T01:47:23;45.77;;;16.40;;
75441;SDS011;64019;48.312;14.226;2022-12-18T01:49:55;44.43;;;17.20;;
75441;SDS011;64019;48.312;14.226;2022-12-18T01:52:24;54.77;;;18.93;;
75441;SDS011;64019;48.312;14.226;2022-12-18T01:54:53;52.57;;;18.00;;
75441;SDS011;64019;48.312;14.226;2022-12-18T01:57:19;47.47;;;18.10;;
75441;SDS011;64019;48.312;14.226;2022-12-18T01:59:47;52.77;;;17.77;;
75441;SDS011;64019;48.312;14.226;2022-12-18T02:02:17;44.70;;;17.50;;
75441;SDS011;64019;48.312;14.226;2022-12-18T02:04:44;48.13;;;18.90;;
75441;SDS011;64019;48.312;14.226;2022-12-18T02:10:10;47.30;;;17.73;;
75441;SDS011;64019;48.312;14.226;2022-12-18T02:15:24;57.37;;;20.73;;
75441;SDS011;64019;48.312;14.226;2022-12-18T02:18:05;44.30;;;16.50;;
75441;SDS011;64019;48.312;14.226;2022-12-18T02:26:27;60.53;;;20.03;;
75441;SDS011;64019;48.312;14.226;2022-12-18T02:31:35;50.53;;;19.20;;
75441;SDS011;64019;48.312;14.226;2022-12-18T02:34:04;53.53;;;19.37;;
75441;SDS011;64019;48.312;14.226;2022-12-18T02:36:33;49.03;;;18.70;;
75441;SDS011;64019;48.312;14.226;2022-12-18T02:39:01;52.50;;;16.97;;
75441;SDS011;64019;48.312;14.226;2022-12-18T02:41:28;48.43;;;17.90;;
75441;SDS011;64019;48.312;14.226;2022-12-18T02:43:57;51.03;;;20.17;;
75441;SDS011;64019;48.312;14.226;2022-12-18T02:46:29;49.57;;;18.83;;
75441;SDS011;64019;48.312;14.226;2022-12-18T02:49:08;54.77;;;19.43;;
75441;SDS011;64019;48.312;14.226;2022-12-18T02:51:53;50.80;;;17.73;;
75441;SDS011;64019;48.312;14.226;2022-12-18T02:54:41;50.43;;;18.73;;
75441;SDS011;64019;48.312;14.226;2022-12-18T02:57:22;41.77;;;15.80;;
75441;SDS011;64019;48.312;14.226;2022-12-18T02:59:57;39.37;;;16.53;;
75441;SDS011;64019;48.312;14.226;2022-12-18T03:02:38;50.00;;;18.27;;
75441;SDS011;64019;48.312;14.226;2022-12-18T03:05:19;45.40;;;17.43;;
75441;SDS011;64019;48.312;14.226;2022-12-18T03:07:55;47.57;;;16.20;;
75441;SDS011;64019;48.312;14.226;2022-12-18T03:10:28;50.37;;;17.60;;
75441;SDS011;64019;48.312;14.226;2022-12-18T03:13:06;50.77;;;16.33;;
75441;SDS011;64019;48.312;14.226;2022-12-18T03:15:47;47.83;;;16.90;;
75441;SDS011;64019;48.312;14.226;2022-12-18T03:18:20;44.83;;;15.73;;
75441;SDS011;64019;48.312;14.226;2022-12-18T03:20:52;47.53;;;18.87;;
75441;SDS011;64019;48.312;14.226;2022-12-18T03:23:24;48.03;;;17.13;;
75441;SDS011;64019;48.312;14.226;2022-12-18T03:25:57;44.63;;;15.67;;
75441;SDS011;64019;48.312;14.226;2022-12-18T03:28:30;39.07;;;15.23;;
75441;SDS011;64019;48.312;14.226;2022-12-18T03:30:59;43.23;;;16.30;;
75441;SDS011;64019;48.312;14.226;2022-12-18T03:33:31;48.43;;;17.37;;
75441;SDS011;64019;48.312;14.226;2022-12-18T03:36:03;40.73;;;15.67;;
75441;SDS011;64019;48.312;14.226;2022-12-18T03:38:29;40.00;;;16.17;;
75441;SDS011;64019;48.312;14.226;2022-12-18T03:41:08;43.17;;;16.90;;
75441;SDS011;64019;48.312;14.226;2022-12-18T03:43:57;43.17;;;16.47;;
75441;SDS011;64019;48.312;14.226;2022-12-18T03:49:27;31.77;;;13.43;;
75441;SDS011;64019;48.312;14.226;2022-12-18T03:54:28;29.10;;;10.07;;
75441;SDS011;64019;48.312;14.226;2022-12-18T03:56:57;27.13;;;10.23;;
75441;SDS011;64019;48.312;14.226;2022-12-18T03:59:29;34.30;;;12.63;;
75441;SDS011;64019;48.312;14.226;2022-12-18T04:01:56;27.40;;;11.33;;
75441;SDS011;64019;48.312;14.226;2022-12-18T04:04:25;32.30;;;12.60;;
75441;SDS011;64019;48.312;14.226;2022-12-18T04:06:53;37.53;;;13.17;;
75441;SDS011;64019;48.312;14.226;2022-12-18T04:09:20;40.57;;;11.77;;
75441;SDS011;64019;48.312;14.226;2022-12-18T04:11:46;27.93;;;10.90;;
75441;SDS011;64019;48.312;14.226;2022-12-18T04:14:12;29.73;;;10.83;;
75441;SDS011;64019;48.312;14.226;2022-12-18T04:16:38;29.77;;;11.47;;
75441;SDS011;64019;48.312;14.226;2022-12-18T04:19:04;27.23;;;11.40;;
75441;SDS011;64019;48.312;14.226;2022-12-18T04:21:30;30.93;;;12.67;;
75441;SDS011;64019;48.312;14.226;2022-12-18T04:23:56;34.53;;;13.17;;
75441;SDS011;64019;48.312;14.226;2022-12-18T04:26:21;33.67;;;13.07;;
75441;SDS011;64019;48.312;14.226;2022-12-18T04:28:47;32.87;;;12.90;;
75441;SDS011;64019;48.312;14.226;2022-12-18T04:31:13;32.50;;;11.90;;
75441;SDS011;64019;48.312;14.226;2022-12-18T04:33:38;39.70;;;13.93;;
75441;SDS011;64019;48.312;14.226;2022-12-18T04:36:04;35.87;;;12.70;;
75441;SDS011;64019;48.312;14.226;2022-12-18T04:38:30;34.23;;;13.27;;
75441;SDS011;64019;48.312;14.226;2022-12-18T04:40:56;27.97;;;11.07;;
75441;SDS011;64019;48.312;14.226;2022-12-18T04:43:21;30.80;;;11.70;;
75441;SDS011;64019;48.312;14.226;2022-12-18T04:45:47;32.17;;;11.90;;
75441;SDS011;64019;48.312;14.226;2022-12-18T04:48:12;31.60;;;11.90;;
75441;SDS011;64019;48.312;14.226;2022-12-18T04:50:38;30.93;;;11.97;;
75441;SDS011;64019;48.312;14.226;2022-12-18T04:53:04;28.93;;;11.73;;
75441;SDS011;64019;48.312;14.226;2022-12-18T04:55:29;29.13;;;12.27;;
75441;SDS011;64019;48.312;14.226;2022-12-18T04:57:55;29.97;;;11.77;;
75441;SDS011;64019;48.312;14.226;2022-12-18T05:00:21;37.60;;;13.03;;
75441;SDS011;64019;48.312;14.226;2022-12-18T05:02:47;25.03;;;10.77;;
75441;SDS011;64019;48.312;14.226;2022-12-18T05:05:13;34.50;;;12.60;;
75441;SDS011;64019;48.312;14.226;2022-12-18T05:07:39;32.70;;;12.13;;
75441;SDS011;64019;48.312;14.226;2022-12-18T05:10:06;31.63;;;11.73;;
75441;SDS011;64019;48.312;14.226;2022-12-18T05:12:32;30.70;;;11.23;;
75441;SDS011;64019;48.312;14.226;2022-12-18T05:14:57;26.07;;;10.67;;
75441;SDS011;64019;48.312;14.226;2022-12-18T05:17:23;27.20;;;11.13;;
75441;SDS011;64019;48.312;14.226;2022-12-18T05:19:49;35.23;;;12.13;;
75441;SDS011;64019;48.312;14.226;2022-12-18T05:22:14;32.13;;;12.50;;
75441;SDS011;64019;48.312;14.226;2022-12-18T05:24:40;29.50;;;10.60;;
75441;SDS011;64019;48.312;14.226;2022-12-18T05:27:06;37.33;;;11.57;;
75441;SDS011;64019;48.312;14.226;2022-12-18T05:29:31;27.13;;;10.93;;
75441;SDS011;64019;48.312;14.226;2022-12-18T05:31:57;25.73;;;11.10;;
75441;SDS011;64019;48.312;14.226;2022-12-18T05:34:22;31.13;;;11.93;;
75441;SDS011;64019;48.312;14.226;2022-12-18T05:36:48;28.23;;;12.13;;
75441;SDS011;64019;48.312;14.226;2022-12-18T05:39:14;30.87;;;11.10;;
75441;SDS011;64019;48.312;14.226;2022-12-18T05:41:39;34.50;;;10.73;;
75441;SDS011;64019;48.312;14.226;2022-12-18T05:44:05;31.63;;;11.70;;
75441;SDS011;64019;48.312;14.226;2022-12-18T05:46:31;32.60;;;11.93;;
75441;SDS011;64019;48.312;14.226;2022-12-18T05:48:58;38.20;;;14.07;;
75441;SDS011;64019;48.312;14.226;2022-12-18T05:51:25;34.03;;;15.13;;
75441;SDS011;64019;48.312;14.226;2022-12-18T05:53:50;36.17;;;15.57;;
75441;SDS011;64019;48.312;14.226;2022-12-18T05:56:18;48.37;;;19.13;;
75441;SDS011;64019;48.312;14.226;2022-12-18T05:58:45;40.10;;;18.20;;
75441;SDS011;64019;48.312;14.226;2022-12-18T06:01:15;47.40;;;19.03;;
75441;SDS011;64019;48.312;14.226;2022-12-18T06:03:43;39.60;;;14.40;;
75441;SDS011;64019;48.312;14.226;2022-12-18T06:06:12;34.37;;;13.77;;
75441;SDS011;64019;48.312;14.226;2022-12-18T06:08:39;39.90;;;12.50;;
75441;SDS011;64019;48.312;14.226;2022-12-18T06:11:05;37.77;;;15.33;;
75441;SDS011;64019;48.312;14.226;2022-12-18T06:13:31;43.73;;;16.03;;
75441;SDS011;64019;48.312;14.226;2022-12-18T06:15:56;46.33;;;17.10;;
75441;SDS011;64019;48.312;14.226;2022-12-18T06:18:22;42.30;;;17.23;;
75441;SDS011;64019;48.312;14.226;2022-12-18T06:20:57;43.47;;;17.27;;
75441;SDS011;64019;48.312;14.226;2022-12-18T06:23:23;41.10;;;15.00;;
75441;SDS011;64019;48.312;14.226;2022-12-18T06:25:49;38.03;;;15.27;;
75441;SDS011;64019;48.312;14.226;2022-12-18T06:28:15;32.80;;;14.40;;
75441;SDS011;64019;48.312;14.226;2022-12-18T06:30:44;32.50;;;12.43;;
75441;SDS011;64019;48.312;14.226;2022-12-18T06:33:11;29.57;;;13.20;;
75441;SDS011;64019;48.312;14.226;2022-12-18T06:35:36;31.53;;;13.13;;
75441;SDS011;64019;48.312;14.226;2022-12-18T06:38:02;33.17;;;13.03;;
75441;SDS011;64019;48.312;14.226;2022-12-18T06:40:28;31.17;;;12.03;;
75441;SDS011;64019;48.312;14.226;2022-12-18T06:42:54;35.27;;;13.13;;
75441;SDS011;64019;48.312;14.226;2022-12-18T06:45:19;45.10;;;13.13;;
75441;SDS011;64019;48.312;14.226;2022-12-18T06:47:45;37.50;;;13.17;;
75441;SDS011;64019;48.312;14.226;2022-12-18T06:50:11;42.60;;;15.43;;
75441;SDS011;64019;48.312;14.226;2022-12-18T06:52:37;32.97;;;14.00;;
75441;SDS011;64019;48.312;14.226;2022-12-18T06:55:05;36.53;;;13.90;;
75441;SDS011;64019;48.312;14.226;2022-12-18T06:57:32;42.03;;;14.00;;
75441;SDS011;64019;48.312;14.226;2022-12-18T06:59:59;37.57;;;13.37;;
75441;SDS011;64019;48.312;14.226;2022-12-18T07:02:25;39.40;;;14.40;;
75441;SDS011;64019;48.312;14.226;2022-12-18T07:04:51;40.33;;;13.77;;
75441;SDS011;64019;48.312;14.226;2022-12-18T07:07:16;52.67;;;15.47;;
75441;SDS011;64019;48.312;14.226;2022-12-18T07:09:42;43.40;;;15.30;;
75441;SDS011;64019;48.312;14.226;2022-12-18T07:12:07;42.83;;;15.23;;
75441;SDS011;64019;48.312;14.226;2022-12-18T07:14:33;49.13;;;14.70;;
75441;SDS011;64019;48.312;14.226;2022-12-18T07:17:01;56.07;;;15.90;;
75441;SDS011;64019;48.312;14.226;2022-12-18T07:19:27;53.33;;;16.77;;
75441;SDS011;64019;48.312;14.226;2022-12-18T07:21:52;50.77;;;17.63;;
75441;SDS011;64019;48.312;14.226;2022-12-18T07:24:18;51.07;;;17.83;;
75441;SDS011;64019;48.312;14.226;2022-12-18T07:26:47;36.83;;;15.17;;
75441;SDS011;64019;48.312;14.226;2022-12-18T07:29:12;51.50;;;17.13;;
75441;SDS011;64019;48.312;14.226;2022-12-18T07:31:38;43.47;;;15.70;;
75441;SDS011;64019;48.312;14.226;2022-12-18T07:34:04;44.97;;;17.43;;
75441;SDS011;64019;48.312;14.226;2022-12-18T07:36:30;44.60;;;16.93;;
75441;SDS011;64019;48.312;14.226;2022-12-18T07:38:55;51.17;;;20.03;;
75441;SDS011;64019;48.312;14.226;2022-12-18T07:41:21;50.53;;;17.47;;
75441;SDS011;64019;48.312;14.226;2022-12-18T07:43:47;44.93;;;14.80;;
75441;SDS011;64019;48.312;14.226;2022-12-18T07:46:14;47.03;;;16.50;;
75441;SDS011;64019;48.312;14.226;2022-12-18T07:48:40;44.07;;;16.70;;
75441;SDS011;64019;48.312;14.226;2022-12-18T07:51:07;47.87;;;15.00;;
75441;SDS011;64019;48.312;14.226;2022-12-18T07:53:33;34.77;;;13.47;;
75441;SDS011;64019;48.312;14.226;2022-12-18T07:56:01;44.17;;;16.23;;
75441;SDS011;64019;48.312;14.226;2022-12-18T07:58:31;42.50;;;14.93;;
75441;SDS011;64019;48.312;14.226;2022-12-18T08:01:04;45.80;;;13.20;;
75441;SDS011;64019;48.312;14.226;2022-12-18T08:03:34;36.90;;;14.03;;
75441;SDS011;64019;48.312;14.226;2022-12-18T08:06:01;41.77;;;15.00;;
75441;SDS011;64019;48.312;14.226;2022-12-18T08:08:28;37.13;;;13.73;;
75441;SDS011;64019;48.312;14.226;2022-12-18T08:10:53;50.00;;;16.00;;
75441;SDS011;64019;48.312;14.226;2022-12-18T08:13:19;43.27;;;15.40;;
75441;SDS011;64019;48.312;14.226;2022-12-18T08:15:45;38.80;;;13.37;;
75441;SDS011;64019;48.312;14.226;2022-12-18T08:18:10;40.83;;;14.77;;
75441;SDS011;64019;48.312;14.226;2022-12-18T08:20:36;35.73;;;14.87;;
75441;SDS011;64019;48.312;14.226;2022-12-18T08:23:07;42.60;;;15.10;;
75441;SDS011;64019;48.312;14.226;2022-12-18T08:25:32;47.13;;;17.97;;
75441;SDS011;64019;48.312;14.226;2022-12-18T08:27:59;45.00;;;16.43;;
75441;SDS011;64019;48.312;14.226;2022-12-18T08:30:24;36.93;;;14.20;;
75441;SDS011;64019;48.312;14.226;2022-12-18T08:32:53;42.47;;;15.23;;
75441;SDS011;64019;48.312;14.226;2022-12-18T08:35:19;45.77;;;16.60;;
75441;SDS011;64019;48.312;14.226;2022-12-18T08:37:44;49.23;;;15.87;;
75441;SDS011;64019;48.312;14.226;2022-12-18T08:40:10;42.50;;;15.67;;
75441;SDS011;64019;48.312;14.226;2022-12-18T08:42:36;49.03;;;16.80;;
75441;SDS011;64019;48.312;14.226;2022-12-18T08:45:20;44.40;;;15.30;;
75441;SDS011;64019;48.312;14.226;2022-12-18T08:47:45;43.57;;;16.47;;
75441;SDS011;64019;48.312;14.226;2022-12-18T08:50:11;49.20;;;16.03;;
75441;SDS011;64019;48.312;14.226;2022-12-18T08:52:37;43.53;;;16.00;;
75441;SDS011;64019;48.312;14.226;2022-12-18T08:55:03;50.87;;;15.63;;
75441;SDS011;64019;48.312;14.226;2022-12-18T08:57:29;58.73;;;16.90;;
75441;SDS011;64019;48.312;14.226;2022-12-18T08:59:54;43.43;;;15.67;;
75441;SDS011;64019;48.312;14.226;2022-12-18T09:02:20;46.00;;;17.63;;
75441;SDS011;64019;48.312;14.226;2022-12-18T09:04:49;50.50;;;16.90;;
75441;SDS011;64019;48.312;14.226;2022-12-18T09:07:14;47.60;;;16.73;;
75441;SDS011;64019;48.312;14.226;2022-12-18T09:09:40;48.43;;;16.77;;
75441;SDS011;64019;48.312;14.226;2022-12-18T09:12:05;45.97;;;16.77;;
75441;SDS011;64019;48.312;14.226;2022-12-18T09:14:31;48.03;;;18.20;;
75441;SDS011;64019;48.312;14.226;2022-12-18T09:16:57;50.33;;;17.80;;
75441;SDS011;64019;48.312;14.226;2022-12-18T09:19:22;41.47;;;15.20;;
75441;SDS011;64019;48.312;14.226;2022-12-18T09:21:48;42.33;;;15.43;;
75441;SDS011;64019;48.312;14.226;2022-12-18T09:24:14;41.77;;;16.10;;
75441;SDS011;64019;48.312;14.226;2022-12-18T09:26:40;38.07;;;15.03;;
75441;SDS011;64019;48.312;14.226;2022-12-18T09:29:06;46.00;;;16.23;;
75441;SDS011;64019;48.312;14.226;2022-12-18T09:31:32;43.00;;;15.93;;
75441;SDS011;64019;48.312;14.226;2022-12-18T09:33:59;38.20;;;14.57;;
75441;SDS011;64019;48.312;14.226;2022-12-18T09:36:24;45.13;;;17.23;;
75441;SDS011;64019;48.312;14.226;2022-12-18T09:38:50;42.03;;;15.37;;
75441;SDS011;64019;48.312;14.226;2022-12-18T09:43:57;45.23;;;17.47;;
75441;SDS011;64019;48.312;14.226;2022-12-18T09:46:27;43.57;;;16.80;;
75441;SDS011;64019;48.312;14.226;2022-12-18T09:49:02;57.07;;;17.10;;
75441;SDS011;64019;48.312;14.226;2022-12-18T09:51:37;47.57;;;16.97;;
75441;SDS011;64019;48.312;14.226;2022-12-18T09:54:12;47.93;;;16.70;;
75441;SDS011;64019;48.312;14.226;2022-12-18T09:56:46;56.03;;;17.33;;
75441;SDS011;64019;48.312;14.226;2022-12-18T09:59:27;53.80;;;17.93;;
75441;SDS011;64019;48.312;14.226;2022-12-18T10:01:59;55.30;;;18.07;;
75441;SDS011;64019;48.312;14.226;2022-12-18T10:04:24;44.23;;;16.87;;
75441;SDS011;64019;48.312;14.226;2022-12-18T10:07:19;41.13;;;15.20;;
75441;SDS011;64019;48.312;14.226;2022-12-18T10:09:58;53.87;;;17.17;;
75441;SDS011;64019;48.312;14.226;2022-12-18T10:18:17;47.33;;;16.63;;
75441;SDS011;64019;48.312;14.226;2022-12-18T10:20:47;58.40;;;18.20;;
75441;SDS011;64019;48.312;14.226;2022-12-18T10:23:30;38.23;;;16.00;;
75441;SDS011;64019;48.312;14.226;2022-12-18T10:26:06;44.37;;;16.70;;
75441;SDS011;64019;48.312;14.226;2022-12-18T10:28:35;50.70;;;17.27;;
75441;SDS011;64019;48.312;14.226;2022-12-18T10:31:05;43.07;;;16.47;;
75441;SDS011;64019;48.312;14.226;2022-12-18T10:33:42;32.50;;;13.97;;
75441;SDS011;64019;48.312;14.226;2022-12-18T10:36:08;41.17;;;14.87;;
75441;SDS011;64019;48.312;14.226;2022-12-18T10:38:34;36.50;;;13.77;;
75441;SDS011;64019;48.312;14.226;2022-12-18T10:43:45;38.63;;;15.07;;
75441;SDS011;64019;48.312;14.226;2022-12-18T10:48:40;37.07;;;15.23;;
75441;SDS011;64019;48.312;14.226;2022-12-18T10:51:22;29.20;;;13.50;;
75441;SDS011;64019;48.312;14.226;2022-12-18T10:54:03;42.90;;;14.23;;
75441;SDS011;64019;48.312;14.226;2022-12-18T10:56:30;36.67;;;13.77;;
75441;SDS011;64019;48.312;14.226;2022-12-18T11:01:32;35.60;;;15.93;;
75441;SDS011;64019;48.312;14.226;2022-12-18T11:04:16;33.57;;;14.17;;
75441;SDS011;64019;48.312;14.226;2022-12-18T11:06:57;33.03;;;13.33;;
75441;SDS011;64019;48.312;14.226;2022-12-18T11:09:34;36.67;;;14.50;;
75441;SDS011;64019;48.312;14.226;2022-12-18T11:12:02;44.03;;;13.90;;
75441;SDS011;64019;48.312;14.226;2022-12-18T11:17:29;35.70;;;13.57;;
75441;SDS011;64019;48.312;14.226;2022-12-18T11:20:01;37.00;;;13.43;;
75441;SDS011;64019;48.312;14.226;2022-12-18T11:22:29;33.17;;;12.73;;
75441;SDS011;64019;48.312;14.226;2022-12-18T11:25:01;34.43;;;12.80;;
75441;SDS011;64019;48.312;14.226;2022-12-18T11:27:30;33.00;;;13.60;;
75441;SDS011;64019;48.312;14.226;2022-12-18T11:30:10;39.33;;;14.20;;
75441;SDS011;64019;48.312;14.226;2022-12-18T11:33:05;31.60;;;13.03;;
75441;SDS011;64019;48.312;14.226;2022-12-18T11:35:45;36.20;;;13.53;;
75441;SDS011;64019;48.312;14.226;2022-12-18T11:38:21;43.27;;;15.00;;
75441;SDS011;64019;48.312;14.226;2022-12-18T11:41:00;37.40;;;15.07;;
75441;SDS011;64019;48.312;14.226;2022-12-18T11:46:24;34.53;;;14.47;;
75441;SDS011;64019;48.312;14.226;2022-12-18T11:51:25;37.70;;;14.17;;
75441;SDS011;64019;48.312;14.226;2022-12-18T11:54:12;45.10;;;15.57;;
75441;SDS011;64019;48.312;14.226;2022-12-18T11:56:43;37.47;;;13.77;;
75441;SDS011;64019;48.312;14.226;2022-12-18T12:26:51;33.17;;;15.53;;
75441;SDS011;64019;48.312;14.226;2022-12-18T12:34:36;37.80;;;15.73;;
75441;SDS011;64019;48.312;14.226;2022-12-18T12:39:45;35.07;;;13.90;;
75441;SDS011;64019;48.312;14.226;2022-12-18T12:42:15;40.47;;;15.03;;
75441;SDS011;64019;48.312;14.226;2022-12-18T12:45:17;38.30;;;15.87;;
75441;SDS011;64019;48.312;14.226;2022-12-18T12:47:51;38.10;;;14.13;;
75441;SDS011;64019;48.312;14.226;2022-12-18T12:50:19;41.50;;;16.00;;
75441;SDS011;64019;48.312;14.226;2022-12-18T12:52:47;36.30;;;13.90;;
75441;SDS011;64019;48.312;14.226;2022-12-18T12:55:21;39.40;;;15.60;;
75441;SDS011;64019;48.312;14.226;2022-12-18T13:06:45;42.30;;;15.87;;
75441;SDS011;64019;48.312;14.226;2022-12-18T13:09:12;35.63;;;15.87;;
75441;SDS011;64019;48.312;14.226;2022-12-18T13:11:39;39.10;;;15.07;;
75441;SDS011;64019;48.312;14.226;2022-12-18T13:14:32;35.67;;;15.80;;
75441;SDS011;64019;48.312;14.226;2022-12-18T13:20:03;42.43;;;14.67;;
75441;SDS011;64019;48.312;14.226;2022-12-18T13:22:38;37.10;;;15.63;;
75441;SDS011;64019;48.312;14.226;2022-12-18T13:40:53;35.10;;;15.60;;
75441;SDS011;64019;48.312;14.226;2022-12-18T13:45:47;44.90;;;17.07;;
75441;SDS011;64019;48.312;14.226;2022-12-18T13:48:24;38.57;;;15.97;;
75441;SDS011;64019;48.312;14.226;2022-12-18T13:50:56;39.70;;;16.03;;
75441;SDS011;64019;48.312;14.226;2022-12-18T13:56:21;41.73;;;16.53;;
75441;SDS011;64019;48.312;14.226;2022-12-18T14:01:43;46.20;;;18.77;;
75441;SDS011;64019;48.312;14.226;2022-12-18T14:04:25;43.77;;;18.97;;
75441;SDS011;64019;48.312;14.226;2022-12-18T14:07:01;45.37;;;18.77;;
75441;SDS011;64019;48.312;14.226;2022-12-18T14:09:36;48.77;;;20.03;;
75441;SDS011;64019;48.312;14.226;2022-12-18T14:12:14;46.27;;;18.53;;
75441;SDS011;64019;48.312;14.226;2022-12-18T14:15:01;44.17;;;18.73;;
75441;SDS011;64019;48.312;14.226;2022-12-18T14:17:28;43.27;;;18.40;;
75441;SDS011;64019;48.312;14.226;2022-12-18T14:19:56;42.10;;;19.63;;
75441;SDS011;64019;48.312;14.226;2022-12-18T14:22:25;44.87;;;19.83;;
75441;SDS011;64019;48.312;14.226;2022-12-18T14:27:38;47.60;;;18.07;;
75441;SDS011;64019;48.312;14.226;2022-12-18T14:30:24;49.03;;;19.63;;
75441;SDS011;64019;48.312;14.226;2022-12-18T14:33:18;37.70;;;18.33;;
75441;SDS011;64019;48.312;14.226;2022-12-18T14:38:31;40.83;;;18.73;;
75441;SDS011;64019;48.312;14.226;2022-12-18T14:41:00;47.57;;;18.83;;
75441;SDS011;64019;48.312;14.226;2022-12-18T14:43:29;42.93;;;19.37;;
75441;SDS011;64019;48.312;14.226;2022-12-18T14:45:57;48.83;;;18.70;;
75441;SDS011;64019;48.312;14.226;2022-12-18T14:51:16;48.97;;;18.87;;
75441;SDS011;64019;48.312;14.226;2022-12-18T14:53:45;47.40;;;18.83;;
75441;SDS011;64019;48.312;14.226;2022-12-18T14:58:46;47.13;;;19.20;;
75441;SDS011;64019;48.312;14.226;2022-12-18T15:01:22;45.17;;;18.47;;
75441;SDS011;64019;48.312;14.226;2022-12-18T15:03:52;42.97;;;19.13;;
75441;SDS011;64019;48.312;14.226;2022-12-18T15:06:27;40.33;;;17.33;;
75441;SDS011;64019;48.312;14.226;2022-12-18T15:08:55;45.03;;;17.37;;
75441;SDS011;64019;48.312;14.226;2022-12-18T15:11:25;45.30;;;17.00;;
75441;SDS011;64019;48.312;14.226;2022-12-18T15:13:53;36.77;;;16.13;;
75441;SDS011;64019;48.312;14.226;2022-12-18T15:16:19;35.33;;;16.10;;
75441;SDS011;64019;48.312;14.226;2022-12-18T15:18:45;36.73;;;15.70;;
75441;SDS011;64019;48.312;14.226;2022-12-18T15:21:16;39.70;;;16.97;;
75441;SDS011;64019;48.312;14.226;2022-12-18T15:26:10;45.07;;;16.30;;
75441;SDS011;64019;48.312;14.226;2022-12-18T15:28:51;39.83;;;16.80;;
75441;SDS011;64019;48.312;14.226;2022-12-18T15:31:23;35.20;;;15.67;;
75441;SDS011;64019;48.312;14.226;2022-12-18T15:36:38;46.07;;;18.50;;
75441;SDS011;64019;48.312;14.226;2022-12-18T15:39:04;46.00;;;17.10;;
75441;SDS011;64019;48.312;14.226;2022-12-18T15:41:31;41.33;;;16.97;;
75441;SDS011;64019;48.312;14.226;2022-12-18T15:43:58;36.60;;;16.23;;
75441;SDS011;64019;48.312;14.226;2022-12-18T15:46:24;37.23;;;15.10;;
75441;SDS011;64019;48.312;14.226;2022-12-18T15:48:55;37.40;;;16.10;;
75441;SDS011;64019;48.312;14.226;2022-12-18T15:51:29;43.80;;;16.47;;
75441;SDS011;64019;48.312;14.226;2022-12-18T15:54:02;41.77;;;17.67;;
75441;SDS011;64019;48.312;14.226;2022-12-18T15:56:29;39.87;;;17.97;;
75441;SDS011;64019;48.312;14.226;2022-12-18T15:59:15;41.23;;;16.90;;
75441;SDS011;64019;48.312;14.226;2022-12-18T16:01:45;42.20;;;17.27;;
75441;SDS011;64019;48.312;14.226;2022-12-18T16:04:12;43.93;;;17.30;;
75441;SDS011;64019;48.312;14.226;2022-12-18T16:06:40;36.37;;;16.10;;
75441;SDS011;64019;48.312;14.226;2022-12-18T16:09:06;45.77;;;19.23;;
75441;SDS011;64019;48.312;14.226;2022-12-18T16:11:32;47.20;;;17.43;;
75441;SDS011;64019;48.312;14.226;2022-12-18T16:16:37;37.40;;;17.33;;
75441;SDS011;64019;48.312;14.226;2022-12-18T16:19:03;40.17;;;17.30;;
75441;SDS011;64019;48.312;14.226;2022-12-18T16:21:28;44.30;;;18.33;;
75441;SDS011;64019;48.312;14.226;2022-12-18T16:23:54;41.70;;;17.43;;
75441;SDS011;64019;48.312;14.226;2022-12-18T16:26:20;34.87;;;16.40;;
75441;SDS011;64019;48.312;14.226;2022-12-18T16:28:45;35.13;;;14.77;;
75441;SDS011;64019;48.312;14.226;2022-12-18T16:31:11;34.73;;;15.70;;
75441;SDS011;64019;48.312;14.226;2022-12-18T16:33:37;41.17;;;15.97;;
75441;SDS011;64019;48.312;14.226;2022-12-18T16:36:02;34.90;;;15.90;;
75441;SDS011;64019;48.312;14.226;2022-12-18T16:38:28;34.83;;;13.60;;
75441;SDS011;64019;48.312;14.226;2022-12-18T16:40:54;32.93;;;14.17;;